createdAt,value
2019-02-19T00:00:48.628Z,129.35
2019-02-19T00:01:27.245Z,127.40
2019-02-19T00:02:03.764Z,129.47
2019-02-19T00:02:39.323Z,148.17
2019-02-19T00:03:14.866Z,135.30
2019-02-19T00:03:50.384Z,124.22
2019-02-19T00:04:26.045Z,104.50
2019-02-19T00:05:01.629Z,99.70
2019-02-19T00:05:37.307Z,112.57
2019-02-19T00:06:12.954Z,109.87
2019-02-19T00:06:48.751Z,113.90
2019-02-19T00:07:24.751Z,119.10
2019-02-19T00:08:00.308Z,108.92
2019-02-19T00:08:35.986Z,114.17
2019-02-19T00:09:11.506Z,111.22
2019-02-19T00:09:47.125Z,112.32
2019-02-19T00:10:22.587Z,104.95
2019-02-19T00:10:58.009Z,111.32
2019-02-19T00:11:33.625Z,107.92
2019-02-19T00:12:09.304Z,110.32
2019-02-19T00:12:44.987Z,111.80
2019-02-19T00:13:20.323Z,110.28
2019-02-19T00:13:55.843Z,109.15
2019-02-19T00:14:31.324Z,110.52
2019-02-19T00:15:08.447Z,107.78
2019-02-19T00:15:44.123Z,107.35
2019-02-19T00:16:19.645Z,111.20
2019-02-19T00:16:55.148Z,107.22
2019-02-19T00:17:30.703Z,136.57
2019-02-19T00:18:06.383Z,140.35
2019-02-19T00:18:41.784Z,127.85
2019-02-19T00:19:17.724Z,131.50
2019-02-19T00:19:53.424Z,128.30
2019-02-19T00:20:29.084Z,129.05
2019-02-19T00:21:04.686Z,117.37
2019-02-19T00:21:40.263Z,113.03
2019-02-19T00:22:16.004Z,118.17
2019-02-19T00:22:51.364Z,108.35
2019-02-19T00:23:26.724Z,108.78
2019-02-19T00:24:02.166Z,118.87
2019-02-19T00:24:37.628Z,111.68
2019-02-19T00:25:13.348Z,111.40
2019-02-19T00:25:48.907Z,107.47
2019-02-19T00:26:24.347Z,109.15
2019-02-19T00:26:59.791Z,117.05
2019-02-19T00:27:35.116Z,108.00
2019-02-19T00:28:10.626Z,116.03
2019-02-19T00:28:46.194Z,110.95
2019-02-19T00:29:21.886Z,110.05
2019-02-19T00:29:57.206Z,108.50
2019-02-19T00:30:32.834Z,110.60
2019-02-19T00:31:08.288Z,121.02
2019-02-19T00:31:43.924Z,116.62
2019-02-19T00:32:19.624Z,103.45
2019-02-19T00:32:55.524Z,112.22
2019-02-19T00:33:30.952Z,106.10
2019-02-19T00:34:06.564Z,104.05
2019-02-19T00:34:42.029Z,103.83
2019-02-19T00:35:17.708Z,101.07
2019-02-19T00:35:53.146Z,104.87
2019-02-19T00:36:28.486Z,118.40
2019-02-19T00:37:04.086Z,110.60
2019-02-19T00:37:39.434Z,115.70
2019-02-19T00:38:15.185Z,113.92
2019-02-19T00:38:50.505Z,105.60
2019-02-19T00:39:26.224Z,116.70
2019-02-19T00:40:01.704Z,112.20
2019-02-19T00:40:37.043Z,111.00
2019-02-19T00:41:12.744Z,107.07
2019-02-19T00:41:48.153Z,107.97
2019-02-19T00:42:27.863Z,106.47
2019-02-19T00:43:03.525Z,104.45
2019-02-19T00:43:39.008Z,106.60
2019-02-19T00:44:14.486Z,104.38
2019-02-19T00:44:49.944Z,104.58
2019-02-19T00:45:25.264Z,117.17
2019-02-19T00:46:00.832Z,104.67
2019-02-19T00:46:36.425Z,98.17
2019-02-19T00:47:11.783Z,101.47
2019-02-19T00:47:47.329Z,106.32
2019-02-19T00:48:22.805Z,101.78
2019-02-19T00:48:58.267Z,108.35
2019-02-19T00:49:33.586Z,99.90
2019-02-19T00:50:09.205Z,101.50
2019-02-19T00:50:44.769Z,106.87
2019-02-19T00:51:20.171Z,107.32
2019-02-19T00:51:55.766Z,105.32
2019-02-19T00:52:31.465Z,108.52
2019-02-19T00:53:07.065Z,118.55
2019-02-19T00:53:42.648Z,119.93
2019-02-19T00:54:18.208Z,130.75
2019-02-19T00:54:53.796Z,119.77
2019-02-19T00:55:29.229Z,122.50
2019-02-19T00:56:04.677Z,120.70
2019-02-19T00:56:40.196Z,121.90
2019-02-19T00:57:15.709Z,131.43
2019-02-19T00:57:51.282Z,121.35
2019-02-19T00:58:26.776Z,128.35
2019-02-19T00:59:02.109Z,120.95
2019-02-19T00:59:37.669Z,126.78
2019-02-19T01:00:14.231Z,127.72
2019-02-19T01:00:49.516Z,121.65
2019-02-19T01:01:25.169Z,127.42
2019-02-19T01:02:00.612Z,126.67
2019-02-19T01:02:36.228Z,136.80
2019-02-19T01:03:11.629Z,153.57
2019-02-19T01:03:47.099Z,170.15
2019-02-19T01:04:22.628Z,158.45
2019-02-19T01:04:58.049Z,264.27
2019-02-19T01:05:33.368Z,170.10
2019-02-19T01:06:08.928Z,139.97
2019-02-19T01:06:44.328Z,139.37
2019-02-19T01:07:19.848Z,136.07
2019-02-19T01:07:55.483Z,136.45
2019-02-19T01:08:30.804Z,141.80
2019-02-19T01:09:08.963Z,139.68
2019-02-19T01:09:44.603Z,148.30
2019-02-19T01:10:19.923Z,136.12
2019-02-19T01:10:55.348Z,155.18
2019-02-19T01:11:30.746Z,159.25
2019-02-19T01:12:06.283Z,293.52
2019-02-19T01:12:41.786Z,159.90
2019-02-19T01:13:17.248Z,135.50
2019-02-19T01:13:54.073Z,135.80
2019-02-19T01:14:29.513Z,132.63
2019-02-19T01:15:04.843Z,127.22
2019-02-19T01:15:40.383Z,124.67
2019-02-19T01:16:15.848Z,128.12
2019-02-19T01:16:51.383Z,122.95
2019-02-19T01:17:26.943Z,120.80
2019-02-19T01:18:02.664Z,110.05
2019-02-19T01:18:42.243Z,111.80
2019-02-19T01:19:17.884Z,116.90
2019-02-19T01:19:53.527Z,119.15
2019-02-19T01:20:28.848Z,117.70
2019-02-19T01:21:04.187Z,118.70
2019-02-19T01:21:39.749Z,117.72
2019-02-19T01:22:15.048Z,125.25
2019-02-19T01:22:50.388Z,124.53
2019-02-19T01:23:25.690Z,114.50
2019-02-19T01:24:01.209Z,116.73
2019-02-19T01:24:36.667Z,115.05
2019-02-19T01:25:12.087Z,110.22
2019-02-19T01:25:47.548Z,111.90
2019-02-19T01:26:23.126Z,110.00
2019-02-19T01:26:58.725Z,115.77
2019-02-19T01:27:34.226Z,111.22
2019-02-19T01:28:09.963Z,114.15
2019-02-19T01:28:45.955Z,113.88
2019-02-19T01:29:21.685Z,114.57
2019-02-19T01:29:57.286Z,117.33
2019-02-19T01:30:33.005Z,115.85
2019-02-19T01:31:08.366Z,118.22
2019-02-19T01:31:43.885Z,117.22
2019-02-19T01:32:19.465Z,111.85
2019-02-19T01:32:54.906Z,105.75
2019-02-19T01:33:30.293Z,108.55
2019-02-19T01:34:05.746Z,104.90
2019-02-19T01:34:41.228Z,114.30
2019-02-19T01:35:16.645Z,112.75
2019-02-19T01:35:52.287Z,110.78
2019-02-19T01:36:27.867Z,109.42
2019-02-19T01:37:03.365Z,110.95
2019-02-19T01:37:38.706Z,122.65
2019-02-19T01:38:14.225Z,115.47
2019-02-19T01:38:49.646Z,116.53
2019-02-19T01:39:25.028Z,112.42
2019-02-19T01:40:00.324Z,114.88
2019-02-19T01:40:35.949Z,117.33
2019-02-19T01:41:11.508Z,116.77
2019-02-19T01:41:46.964Z,114.35
2019-02-19T01:42:22.489Z,115.20
2019-02-19T01:42:57.966Z,112.45
2019-02-19T01:43:33.547Z,106.78
2019-02-19T01:44:09.303Z,105.07
2019-02-19T01:44:44.889Z,99.42
2019-02-19T01:45:20.310Z,103.95
2019-02-19T01:45:55.668Z,101.12
2019-02-19T01:46:31.168Z,99.85
2019-02-19T01:47:06.625Z,98.90
2019-02-19T01:47:41.928Z,100.33
2019-02-19T01:48:17.906Z,99.47
2019-02-19T01:48:53.464Z,101.50
2019-02-19T01:49:28.808Z,103.72
2019-02-19T01:50:04.644Z,107.67
2019-02-19T01:50:40.223Z,110.52
2019-02-19T01:51:15.784Z,106.03
2019-02-19T01:51:51.904Z,104.10
2019-02-19T01:52:27.383Z,97.92
2019-02-19T01:53:02.704Z,100.45
2019-02-19T01:53:38.383Z,98.60
2019-02-19T01:54:13.864Z,98.52
2019-02-19T01:54:49.265Z,93.70
2019-02-19T01:55:24.564Z,99.62
2019-02-19T01:56:00.124Z,98.82
2019-02-19T01:56:35.663Z,97.65
2019-02-19T01:57:11.304Z,101.85
2019-02-19T01:57:46.755Z,102.75
2019-02-19T01:58:22.171Z,97.45
2019-02-19T01:58:57.592Z,100.40
2019-02-19T01:59:33.426Z,98.52
2019-02-19T02:00:09.665Z,97.35
2019-02-19T02:00:45.125Z,101.12
2019-02-19T02:01:20.525Z,102.82
2019-02-19T02:01:55.865Z,108.92
2019-02-19T02:02:31.336Z,111.00
2019-02-19T02:03:06.750Z,101.97
2019-02-19T02:03:42.124Z,100.20
2019-02-19T02:04:17.583Z,98.05
2019-02-19T02:04:53.024Z,96.37
2019-02-19T02:05:28.324Z,106.25
2019-02-19T02:06:03.812Z,106.70
2019-02-19T02:06:39.403Z,106.52
2019-02-19T02:07:14.764Z,104.78
2019-02-19T02:07:50.364Z,106.47
2019-02-19T02:08:25.786Z,103.65
2019-02-19T02:09:01.126Z,109.20
2019-02-19T02:09:36.445Z,106.05
2019-02-19T02:10:11.869Z,106.05
2019-02-19T02:10:47.386Z,104.65
2019-02-19T02:11:23.486Z,99.47
2019-02-19T02:11:58.984Z,102.72
2019-02-19T02:12:34.464Z,98.55
2019-02-19T02:13:09.904Z,93.12
2019-02-19T02:13:45.272Z,97.00
2019-02-19T02:14:21.024Z,91.37
2019-02-19T02:14:56.703Z,99.22
2019-02-19T02:15:32.223Z,95.00
2019-02-19T02:16:07.633Z,99.05
2019-02-19T02:16:43.043Z,96.42
2019-02-19T02:17:18.704Z,102.17
2019-02-19T02:17:54.124Z,96.12
2019-02-19T02:18:29.630Z,96.42
2019-02-19T02:19:05.010Z,100.07
2019-02-19T02:19:40.431Z,103.47
2019-02-19T02:20:15.850Z,105.25
2019-02-19T02:20:51.270Z,100.12
2019-02-19T02:21:26.813Z,101.78
2019-02-19T02:22:02.448Z,104.27
2019-02-19T02:22:37.769Z,104.50
2019-02-19T02:23:13.095Z,97.30
2019-02-19T02:23:48.544Z,99.72
2019-02-19T02:24:23.963Z,105.03
2019-02-19T02:24:59.524Z,105.87
2019-02-19T02:25:34.943Z,102.70
2019-02-19T02:26:10.566Z,109.42
2019-02-19T02:26:46.008Z,101.87
2019-02-19T02:27:21.404Z,101.67
2019-02-19T02:27:56.757Z,101.20
2019-02-19T02:28:32.364Z,93.55
2019-02-19T02:29:07.838Z,92.55
2019-02-19T02:29:43.396Z,89.25
2019-02-19T02:30:19.003Z,87.53
2019-02-19T02:30:54.456Z,85.72
2019-02-19T02:31:29.981Z,95.17
2019-02-19T02:32:05.433Z,95.53
2019-02-19T02:32:40.873Z,95.35
2019-02-19T02:33:16.310Z,99.67
2019-02-19T02:33:51.823Z,99.32
2019-02-19T02:34:27.348Z,93.33
2019-02-19T02:35:03.114Z,97.35
2019-02-19T02:35:38.613Z,102.10
2019-02-19T02:36:14.046Z,103.05
2019-02-19T02:36:49.574Z,108.35
2019-02-19T02:37:25.095Z,111.25
2019-02-19T02:38:00.771Z,106.20
2019-02-19T02:38:36.612Z,110.50
2019-02-19T02:39:12.251Z,108.47
2019-02-19T02:39:47.754Z,100.25
2019-02-19T02:40:23.219Z,95.83
2019-02-19T02:40:58.729Z,91.53
2019-02-19T02:41:34.051Z,90.97
2019-02-19T02:42:09.594Z,97.12
2019-02-19T02:43:24.384Z,91.08
2019-02-19T02:43:59.867Z,85.32
2019-02-19T02:44:35.268Z,91.20
2019-02-19T02:45:11.266Z,97.15
2019-02-19T02:45:53.227Z,91.95
2019-02-19T02:46:23.810Z,92.05
2019-02-19T02:46:59.259Z,91.47
2019-02-19T02:47:34.800Z,91.78
2019-02-19T02:48:10.246Z,90.10
2019-02-19T02:48:45.866Z,89.17
2019-02-19T02:49:21.468Z,91.40
2019-02-19T02:49:56.837Z,91.15
2019-02-19T02:50:32.270Z,94.85
2019-02-19T02:51:07.736Z,91.97
2019-02-19T02:51:43.380Z,91.08
2019-02-19T02:52:18.960Z,101.38
2019-02-19T02:52:54.569Z,99.65
2019-02-19T02:53:30.155Z,101.85
2019-02-19T02:54:05.951Z,104.90
2019-02-19T02:54:41.530Z,96.15
2019-02-19T02:55:16.932Z,102.50
2019-02-19T02:55:52.396Z,98.42
2019-02-19T02:56:28.057Z,94.32
2019-02-19T02:57:03.532Z,93.82
2019-02-19T02:57:39.195Z,102.12
2019-02-19T02:58:14.764Z,106.03
2019-02-19T02:58:50.557Z,109.60
2019-02-19T02:59:26.363Z,102.92
2019-02-19T03:00:01.941Z,101.25
2019-02-19T03:00:37.683Z,100.53
2019-02-19T03:01:13.206Z,94.47
2019-02-19T03:01:48.724Z,86.95
2019-02-19T03:03:15.361Z,89.17
2019-02-19T03:03:51.005Z,91.47
2019-02-19T03:04:26.434Z,87.57
2019-02-19T03:05:02.056Z,87.35
2019-02-19T03:05:40.298Z,86.20
2019-02-19T03:06:33.441Z,87.82
2019-02-19T03:07:16.372Z,90.87
2019-02-19T03:07:54.850Z,90.62
2019-02-19T03:08:30.414Z,86.57
2019-02-19T03:09:06.320Z,90.12
2019-02-19T03:09:41.992Z,97.45
2019-02-19T03:10:17.484Z,91.57
2019-02-19T03:10:53.024Z,100.15
2019-02-19T03:11:28.643Z,102.70
2019-02-19T03:12:04.244Z,102.02
2019-02-19T03:12:39.767Z,95.03
2019-02-19T03:13:15.840Z,97.33
2019-02-19T03:13:51.518Z,95.62
2019-02-19T03:14:27.105Z,87.30
2019-02-19T03:15:02.627Z,91.32
2019-02-19T03:15:38.238Z,96.75
2019-02-19T03:16:16.998Z,90.28
2019-02-19T03:16:52.493Z,90.65
2019-02-19T03:17:27.947Z,82.70
2019-02-19T03:18:03.476Z,86.92
2019-02-19T03:18:38.990Z,86.35
2019-02-19T03:19:14.423Z,90.97
2019-02-19T03:19:49.737Z,90.57
2019-02-19T03:20:25.268Z,88.58
2019-02-19T03:21:00.824Z,91.37
2019-02-19T03:21:36.241Z,89.37
2019-02-19T03:22:11.798Z,95.60
2019-02-19T03:22:47.441Z,93.67
2019-02-19T03:23:23.037Z,95.57
2019-02-19T03:23:58.563Z,91.90
2019-02-19T03:24:33.921Z,92.17
2019-02-19T03:25:09.553Z,99.52
2019-02-19T03:25:45.083Z,90.55
2019-02-19T03:26:20.825Z,93.85
2019-02-19T03:26:56.250Z,94.83
2019-02-19T03:27:31.594Z,94.60
2019-02-19T03:28:07.242Z,93.42
2019-02-19T03:28:42.866Z,96.02
2019-02-19T03:29:18.476Z,97.08
2019-02-19T03:29:53.923Z,98.25
2019-02-19T03:30:29.456Z,103.67
2019-02-19T03:31:05.230Z,89.85
2019-02-19T03:31:40.871Z,81.42
2019-02-19T03:32:16.445Z,84.03
2019-02-19T03:32:51.938Z,94.20
2019-02-19T03:33:27.468Z,83.70
2019-02-19T03:34:03.322Z,85.65
2019-02-19T03:34:38.785Z,82.75
2019-02-19T03:35:14.430Z,82.78
2019-02-19T03:35:50.059Z,84.22
2019-02-19T03:36:25.613Z,88.70
2019-02-19T03:37:01.094Z,86.57
2019-02-19T03:37:36.573Z,83.67
2019-02-19T03:38:12.255Z,97.78
2019-02-19T03:38:47.887Z,92.08
2019-02-19T03:39:23.556Z,87.27
2019-02-19T03:39:59.129Z,79.58
2019-02-19T03:40:35.361Z,91.32
2019-02-19T03:41:10.749Z,88.72
2019-02-19T03:41:46.337Z,89.20
2019-02-19T03:42:22.481Z,86.40
2019-02-19T03:42:57.987Z,87.45
2019-02-19T03:43:33.704Z,90.97
2019-02-19T03:44:09.170Z,94.22
2019-02-19T03:44:44.777Z,90.77
2019-02-19T03:45:20.254Z,96.65
2019-02-19T03:45:55.782Z,89.67
2019-02-19T03:46:31.178Z,91.20
2019-02-19T03:47:06.672Z,84.83
2019-02-19T03:47:42.147Z,98.65
2019-02-19T03:48:17.791Z,102.95
2019-02-19T03:48:53.659Z,106.60
2019-02-19T03:49:29.285Z,105.07
2019-02-19T03:50:05.188Z,106.72
2019-02-19T03:50:40.899Z,105.22
2019-02-19T03:51:16.670Z,106.47
2019-02-19T03:51:52.225Z,105.95
2019-02-19T03:52:27.640Z,110.92
2019-02-19T03:53:03.474Z,107.58
2019-02-19T03:53:38.876Z,108.05
2019-02-19T03:54:14.566Z,106.65
2019-02-19T03:54:50.094Z,96.45
2019-02-19T03:55:25.572Z,101.27
2019-02-19T03:56:01.146Z,104.27
2019-02-19T03:56:36.802Z,109.10
2019-02-19T03:57:12.243Z,104.05
2019-02-19T03:57:48.042Z,106.22
2019-02-19T03:58:24.056Z,102.58
2019-02-19T03:58:59.841Z,98.90
2019-02-19T03:59:35.308Z,93.25
2019-02-19T04:00:11.418Z,100.10
2019-02-19T04:00:47.617Z,94.67
2019-02-19T04:01:23.609Z,92.25
2019-02-19T04:01:59.150Z,95.62
2019-02-19T04:02:34.811Z,90.67
2019-02-19T04:03:10.355Z,92.35
2019-02-19T04:03:45.840Z,85.67
2019-02-19T04:04:21.420Z,87.47
2019-02-19T04:04:57.088Z,87.25
2019-02-19T04:05:32.869Z,90.87
2019-02-19T04:06:08.390Z,85.42
2019-02-19T04:06:44.019Z,84.40
2019-02-19T04:07:19.372Z,83.58
2019-02-19T04:07:54.999Z,79.60
2019-02-19T04:08:30.467Z,89.07
2019-02-19T04:09:06.327Z,88.75
2019-02-19T04:09:42.147Z,91.37
2019-02-19T04:10:17.836Z,95.10
2019-02-19T04:10:53.387Z,99.22
2019-02-19T04:11:29.117Z,90.62
2019-02-19T04:12:04.608Z,87.55
2019-02-19T04:12:40.266Z,86.78
2019-02-19T04:13:16.024Z,85.32
2019-02-19T04:13:51.533Z,87.25
2019-02-19T04:14:27.072Z,88.42
2019-02-19T04:15:02.734Z,88.75
2019-02-19T04:15:38.468Z,95.75
2019-02-19T04:16:21.107Z,100.53
2019-02-19T04:16:50.864Z,88.52
2019-02-19T04:17:26.544Z,94.70
2019-02-19T04:18:02.039Z,92.35
2019-02-19T04:18:37.582Z,89.15
2019-02-19T04:19:13.359Z,85.57
2019-02-19T04:19:49.114Z,84.25
2019-02-19T04:20:24.765Z,86.87
2019-02-19T04:21:00.151Z,85.25
2019-02-19T04:21:35.988Z,91.95
2019-02-19T04:22:11.692Z,95.35
2019-02-19T04:22:47.382Z,88.67
2019-02-19T04:23:23.091Z,88.95
2019-02-19T04:23:58.812Z,95.92
2019-02-19T04:24:34.434Z,94.45
2019-02-19T04:25:09.983Z,93.45
2019-02-19T04:25:45.890Z,96.45
2019-02-19T04:26:21.442Z,94.40
2019-02-19T04:26:57.005Z,89.85
2019-02-19T04:27:32.616Z,89.35
2019-02-19T04:28:08.801Z,96.95
2019-02-19T04:28:44.336Z,94.85
2019-02-19T04:29:19.831Z,94.28
2019-02-19T04:29:55.511Z,92.62
2019-02-19T04:30:30.945Z,88.72
2019-02-19T04:31:06.663Z,91.50
2019-02-19T04:31:42.119Z,98.50
2019-02-19T04:32:17.434Z,102.35
2019-02-19T04:32:52.934Z,98.75
2019-02-19T04:33:28.606Z,92.02
2019-02-19T04:34:04.202Z,91.47
2019-02-19T04:34:39.931Z,89.83
2019-02-19T04:35:15.551Z,87.42
2019-02-19T04:35:51.063Z,87.33
2019-02-19T04:36:26.585Z,86.47
2019-02-19T04:37:02.383Z,89.15
2019-02-19T04:37:38.485Z,85.28
2019-02-19T04:38:14.023Z,88.87
2019-02-19T04:38:49.422Z,87.78
2019-02-19T04:39:25.107Z,85.50
2019-02-19T04:40:00.878Z,86.95
2019-02-19T04:40:36.460Z,90.53
2019-02-19T04:41:12.010Z,92.40
2019-02-19T04:41:47.302Z,89.83
2019-02-19T04:42:23.041Z,90.05
2019-02-19T04:44:01.011Z,91.75
2019-02-19T04:44:36.697Z,70.70
2019-02-19T04:45:12.674Z,75.20
2019-02-19T04:45:48.222Z,73.97
2019-02-19T04:46:31.357Z,75.32
2019-02-19T04:47:01.569Z,71.95
2019-02-19T04:47:37.246Z,74.30
2019-02-19T04:48:12.902Z,82.47
2019-02-19T04:48:48.651Z,73.97
2019-02-19T04:49:24.213Z,73.60
2019-02-19T04:49:59.661Z,75.87
2019-02-19T04:50:35.222Z,74.50
2019-02-19T04:51:11.824Z,78.95
2019-02-19T04:51:47.838Z,76.60
2019-02-19T04:52:23.601Z,80.62
2019-02-19T04:52:59.350Z,94.95
2019-02-19T04:53:34.811Z,93.58
2019-02-19T04:54:10.467Z,98.97
2019-02-19T04:54:46.151Z,99.22
2019-02-19T04:55:21.751Z,99.37
2019-02-19T04:55:57.438Z,94.65
2019-02-19T04:56:32.850Z,94.55
2019-02-19T04:57:08.316Z,89.32
2019-02-19T04:57:43.734Z,85.40
2019-02-19T04:58:19.242Z,82.50
2019-02-19T04:58:54.773Z,84.97
2019-02-19T04:59:30.569Z,81.57
2019-02-19T05:00:06.323Z,84.03
2019-02-19T05:00:42.295Z,86.15
2019-02-19T05:01:17.852Z,87.22
2019-02-19T05:01:53.433Z,84.35
2019-02-19T05:02:29.186Z,83.95
2019-02-19T05:03:04.670Z,83.60
2019-02-19T05:03:40.110Z,77.37
2019-02-19T05:04:15.621Z,68.92
2019-02-19T05:04:51.097Z,70.05
2019-02-19T05:05:26.685Z,67.40
2019-02-19T05:06:02.082Z,74.58
2019-02-19T05:06:37.536Z,84.25
2019-02-19T05:07:13.093Z,81.20
2019-02-19T05:07:49.131Z,80.57
2019-02-19T05:08:24.687Z,87.30
2019-02-19T05:09:00.124Z,83.22
2019-02-19T05:09:35.347Z,84.15
2019-02-19T05:10:10.971Z,84.58
2019-02-19T05:10:46.539Z,89.35
2019-02-19T05:11:22.083Z,87.10
2019-02-19T05:11:57.639Z,83.33
2019-02-19T05:12:33.165Z,87.02
2019-02-19T05:13:08.734Z,91.65
2019-02-19T05:13:44.222Z,95.50
2019-02-19T05:14:19.774Z,93.00
2019-02-19T05:14:55.252Z,89.67
2019-02-19T05:15:31.176Z,86.60
2019-02-19T05:16:06.677Z,82.47
2019-02-19T05:16:42.387Z,81.60
2019-02-19T05:17:17.947Z,80.28
2019-02-19T05:17:53.527Z,82.80
2019-02-19T05:18:29.014Z,78.67
2019-02-19T05:19:04.570Z,78.52
2019-02-19T05:19:40.016Z,75.75
2019-02-19T05:20:15.629Z,76.42
2019-02-19T05:20:51.068Z,73.67
2019-02-19T05:21:26.554Z,71.97
2019-02-19T05:22:02.009Z,79.30
2019-02-19T05:22:37.702Z,82.35
2019-02-19T05:23:13.345Z,74.95
2019-02-19T05:23:49.175Z,71.37
2019-02-19T05:24:24.684Z,79.32
2019-02-19T05:25:00.264Z,67.87
2019-02-19T05:25:35.968Z,71.57
2019-02-19T05:26:11.481Z,75.67
2019-02-19T05:26:47.934Z,74.35
2019-02-19T05:27:23.440Z,74.03
2019-02-19T05:27:59.062Z,73.78
2019-02-19T05:28:34.645Z,75.22
2019-02-19T05:29:10.033Z,72.10
2019-02-19T05:29:45.482Z,78.20
2019-02-19T05:30:20.850Z,73.85
2019-02-19T05:30:56.493Z,67.95
2019-02-19T05:31:32.083Z,76.50
2019-02-19T05:32:07.513Z,77.53
2019-02-19T05:32:42.968Z,76.17
2019-02-19T05:33:18.401Z,76.65
2019-02-19T05:33:54.011Z,86.90
2019-02-19T05:34:29.550Z,76.15
2019-02-19T05:35:05.155Z,78.83
2019-02-19T05:35:41.112Z,74.47
2019-02-19T05:36:16.673Z,78.62
2019-02-19T05:36:52.147Z,77.25
2019-02-19T05:37:27.762Z,74.50
2019-02-19T05:38:04.263Z,77.95
2019-02-19T05:38:39.795Z,73.97
2019-02-19T05:39:15.398Z,77.75
2019-02-19T05:39:51.071Z,75.05
2019-02-19T05:40:26.735Z,81.28
2019-02-19T05:41:03.939Z,80.12
2019-02-19T05:41:41.210Z,83.00
2019-02-19T05:42:17.307Z,84.67
2019-02-19T05:42:52.882Z,82.60
2019-02-19T05:43:28.455Z,76.00
2019-02-19T05:44:03.825Z,77.05
2019-02-19T05:44:39.140Z,78.55
2019-02-19T05:45:14.935Z,78.12
2019-02-19T05:45:50.638Z,76.40
2019-02-19T05:46:26.272Z,81.67
2019-02-19T05:47:01.773Z,79.72
2019-02-19T05:47:37.320Z,80.97
2019-02-19T05:48:12.721Z,71.80
2019-02-19T05:48:48.302Z,71.75
2019-02-19T05:49:23.831Z,73.92
2019-02-19T05:49:59.316Z,70.75
2019-02-19T05:50:34.824Z,73.72
2019-02-19T05:51:10.445Z,73.72
2019-02-19T05:51:45.969Z,77.30
2019-02-19T05:52:21.453Z,74.85
2019-02-19T05:52:56.979Z,76.02
2019-02-19T05:53:32.486Z,72.47
2019-02-19T05:54:07.943Z,74.17
2019-02-19T05:54:43.525Z,72.25
2019-02-19T05:55:19.350Z,74.22
2019-02-19T05:55:54.887Z,71.12
2019-02-19T05:56:30.387Z,74.00
2019-02-19T05:57:05.779Z,76.00
2019-02-19T05:57:41.634Z,81.37
2019-02-19T05:58:17.189Z,82.27
2019-02-19T05:58:52.888Z,79.35
2019-02-19T05:59:28.608Z,75.10
2019-02-19T06:00:04.325Z,76.10
2019-02-19T06:00:39.870Z,74.55
2019-02-19T06:01:15.255Z,73.00
2019-02-19T06:01:50.993Z,77.95
2019-02-19T06:02:26.721Z,76.67
2019-02-19T06:03:02.362Z,74.62
2019-02-19T06:03:37.811Z,80.20
2019-02-19T06:04:13.482Z,75.20
2019-02-19T06:04:49.074Z,83.15
2019-02-19T06:05:24.664Z,74.72
2019-02-19T06:06:00.104Z,80.95
2019-02-19T06:06:35.719Z,74.70
2019-02-19T06:07:11.252Z,82.82
2019-02-19T06:07:46.834Z,74.47
2019-02-19T06:08:22.465Z,74.25
2019-02-19T06:08:57.957Z,74.22
2019-02-19T06:09:33.861Z,70.95
2019-02-19T06:10:10.653Z,75.95
2019-02-19T06:10:46.235Z,72.05
2019-02-19T06:11:21.922Z,73.42
2019-02-19T06:11:57.554Z,72.10
2019-02-19T06:12:33.223Z,74.27
2019-02-19T06:13:08.945Z,75.15
2019-02-19T06:13:44.711Z,72.58
2019-02-19T06:14:20.442Z,78.17
2019-02-19T06:14:55.881Z,76.80
2019-02-19T06:15:31.481Z,76.28
2019-02-19T06:16:07.193Z,82.97
2019-02-19T06:16:42.700Z,82.97
2019-02-19T06:17:18.025Z,76.15
2019-02-19T06:17:53.588Z,74.62
2019-02-19T06:18:29.214Z,76.47
2019-02-19T06:19:04.845Z,76.57
2019-02-19T06:19:40.409Z,74.37
2019-02-19T06:20:15.925Z,71.92
2019-02-19T06:20:51.797Z,79.35
2019-02-19T06:21:27.203Z,73.42
2019-02-19T06:22:02.965Z,71.50
2019-02-19T06:22:38.650Z,70.80
2019-02-19T06:23:14.280Z,73.72
2019-02-19T06:23:49.944Z,72.85
2019-02-19T06:24:25.498Z,70.20
2019-02-19T06:25:01.150Z,73.12
2019-02-19T06:25:36.906Z,76.42
2019-02-19T06:26:12.544Z,74.90
2019-02-19T06:26:48.262Z,73.20
2019-02-19T06:27:23.930Z,74.87
2019-02-19T06:27:59.535Z,77.70
2019-02-19T06:28:35.070Z,78.20
2019-02-19T06:29:10.731Z,78.10
2019-02-19T06:29:46.289Z,75.40
2019-02-19T06:30:21.866Z,76.70
2019-02-19T06:30:57.363Z,77.75
2019-02-19T06:31:33.108Z,80.35
2019-02-19T06:32:08.658Z,81.63
2019-02-19T06:32:44.197Z,88.33
2019-02-19T06:33:19.718Z,86.00
2019-02-19T06:33:55.298Z,84.67
2019-02-19T06:34:30.869Z,86.02
2019-02-19T06:35:06.869Z,87.78
2019-02-19T06:35:42.443Z,86.50
2019-02-19T06:36:18.001Z,86.10
2019-02-19T06:36:53.753Z,74.50
2019-02-19T06:37:29.499Z,73.62
2019-02-19T06:38:05.108Z,77.55
2019-02-19T06:38:40.622Z,73.97
2019-02-19T06:39:16.257Z,73.57
2019-02-19T06:39:51.925Z,70.57
2019-02-19T06:40:29.134Z,79.47
2019-02-19T06:41:04.714Z,69.30
2019-02-19T06:41:40.245Z,68.62
2019-02-19T06:42:15.779Z,71.07
2019-02-19T06:42:51.199Z,74.97
2019-02-19T06:43:26.645Z,71.47
2019-02-19T06:44:03.263Z,72.97
2019-02-19T06:44:38.879Z,77.42
2019-02-19T06:45:14.998Z,72.50
2019-02-19T06:45:50.575Z,75.20
2019-02-19T06:46:26.267Z,76.50
2019-02-19T06:47:06.838Z,73.37
2019-02-19T06:47:38.777Z,72.10
2019-02-19T06:48:14.252Z,71.82
2019-02-19T06:48:49.727Z,72.82
2019-02-19T06:49:25.314Z,72.17
2019-02-19T06:50:01.072Z,71.33
2019-02-19T06:50:36.726Z,75.30
2019-02-19T06:51:12.155Z,76.57
2019-02-19T06:51:47.693Z,77.80
2019-02-19T06:52:23.225Z,87.20
2019-02-19T06:52:58.779Z,90.50
2019-02-19T06:53:34.283Z,92.47
2019-02-19T06:54:09.795Z,88.15
2019-02-19T06:54:45.843Z,94.07
2019-02-19T06:55:21.422Z,89.70
2019-02-19T06:55:57.082Z,92.02
2019-02-19T06:56:32.807Z,86.87
2019-02-19T06:57:08.282Z,82.78
2019-02-19T06:57:43.840Z,91.17
2019-02-19T06:58:19.352Z,88.33
2019-02-19T06:58:54.864Z,86.65
2019-02-19T06:59:30.405Z,91.17
2019-02-19T07:00:06.130Z,99.28
2019-02-19T07:00:41.652Z,101.02
2019-02-19T07:01:20.703Z,98.60
2019-02-19T07:02:19.317Z,96.20
2019-02-19T07:03:02.297Z,97.27
2019-02-19T07:03:45.236Z,95.00
2019-02-19T07:04:27.278Z,98.03
2019-02-19T07:05:03.567Z,102.82
2019-02-19T07:05:39.048Z,99.92
2019-02-19T07:06:14.589Z,102.32
2019-02-19T07:06:50.249Z,97.67
2019-02-19T07:07:25.774Z,94.47
2019-02-19T07:08:01.180Z,102.35
2019-02-19T07:08:36.714Z,100.18
2019-02-19T07:09:12.295Z,97.55
2019-02-19T07:09:47.891Z,91.95
2019-02-19T07:10:23.314Z,94.62
2019-02-19T07:10:59.217Z,100.07
2019-02-19T07:11:34.446Z,96.65
2019-02-19T07:12:09.893Z,90.95
2019-02-19T07:12:45.368Z,84.75
2019-02-19T07:13:39.966Z,89.83
2019-02-19T07:14:15.629Z,85.87
2019-02-19T07:14:51.366Z,86.60
2019-02-19T07:15:27.026Z,84.90
2019-02-19T07:16:02.378Z,88.85
2019-02-19T07:16:37.726Z,90.12
2019-02-19T07:17:15.632Z,85.20
2019-02-19T07:17:50.626Z,87.30
2019-02-19T07:18:26.065Z,87.45
2019-02-19T07:19:01.326Z,83.62
2019-02-19T07:19:36.787Z,81.67
2019-02-19T07:20:12.186Z,80.22
2019-02-19T07:20:47.526Z,80.90
2019-02-19T07:21:22.568Z,81.72
2019-02-19T07:21:57.939Z,76.82
2019-02-19T07:22:33.388Z,80.32
2019-02-19T07:23:08.908Z,78.55
2019-02-19T07:23:44.328Z,79.03
2019-02-19T07:24:19.764Z,79.00
2019-02-19T07:24:55.203Z,77.32
2019-02-19T07:25:30.764Z,80.12
2019-02-19T07:26:06.167Z,79.07
2019-02-19T07:26:41.484Z,79.35
2019-02-19T07:27:16.863Z,79.60
2019-02-19T07:27:52.365Z,77.70
2019-02-19T07:28:27.691Z,80.85
2019-02-19T07:29:03.224Z,76.92
2019-02-19T07:29:38.447Z,76.80
2019-02-19T07:30:14.104Z,78.52
2019-02-19T07:30:49.526Z,74.58
2019-02-19T07:31:24.973Z,83.20
2019-02-19T07:32:00.663Z,78.92
2019-02-19T07:32:35.812Z,74.87
2019-02-19T07:33:11.264Z,80.92
2019-02-19T07:33:46.546Z,76.12
2019-02-19T07:34:21.936Z,76.55
2019-02-19T07:34:57.329Z,72.30
2019-02-19T07:35:33.864Z,74.95
2019-02-19T07:36:09.412Z,71.85
2019-02-19T07:36:45.093Z,76.53
2019-02-19T07:37:20.772Z,69.58
2019-02-19T07:37:55.924Z,72.87
2019-02-19T07:38:31.224Z,76.22